Sv.knyaz Vladimir — UBKI2 — position and weather

sailwx.info

Track history (hours):
 
Tides and Currents Weather Stations Pressure Air Temp Water Temp Dewpoint Dewpoint Depression Visibility Wind Speed Wind Dir Waves Ship Positions

Sv.knyaz Vladimir

Last reported at 2014-Dec-01 20:31 UTC. Time now 2014-Dec-21 23:12 UTC.
Position N 44°07' E 034°24'.
Warning: this ship's position is 20 days out of date.

Length 128 m; draft 3.3 m.

Type: Cargo ship. MMSI: 273350360.

Date/timePositionNaut miles runAvg speedWind from/ knotsBaromVisibWave heightAir tempDewpointWater temp
2014-Dec-01 20:31N 44°07' E 034°24'267 8.0
2014-Nov-30 11:08N 41°26' E 029°33'5 8.5
2014-Nov-30 10:33N 41°24' E 029°28'9 8.6
2014-Nov-30 09:31N 41°19' E 029°18'23 7.0
2014-Nov-30 06:17N 41°00' E 028°60'3 4.3
2014-Nov-30 05:33N 40°57' E 028°59'3 2.8
2014-Nov-30 04:32N 40°56' E 028°55'1 0.2
2014-Nov-29 21:20N 40°57' E 028°55'0 0.0
2014-Nov-29 20:32N 40°57' E 028°55'0 0.0
2014-Nov-29 17:32N 40°57' E 028°55'0 0.0
2014-Nov-29 16:32N 40°57' E 028°55'0 0.0
2014-Nov-29 13:20N 40°58' E 028°55'0 0.0
2014-Nov-29 12:32N 40°57' E 028°55'0 0.0
2014-Nov-29 11:32N 40°57' E 028°55'0 0.0
2014-Nov-29 10:26N 40°57' E 028°55'0 0.0
2014-Nov-29 09:28N 40°57' E 028°55'0 0.0
2014-Nov-29 08:16N 40°57' E 028°55'0 0.0
2014-Nov-29 06:16N 40°57' E 028°55'0 0.0
2014-Nov-29 05:28N 40°57' E 028°55'0 0.0
2014-Nov-29 04:22N 40°57' E 028°55'0 0.0
2014-Nov-29 03:22N 40°57' E 028°55'0 0.0
2014-Nov-29 02:17N 40°57' E 028°55'0 0.0
2014-Nov-29 01:24N 40°57' E 028°55'0 0.0
2014-Nov-29 00:30N 40°57' E 028°55'0 0.0
2014-Nov-28 23:18N 40°57' E 028°55'0 0.0
2014-Nov-28 20:27N 40°57' E 028°55'4 4.0
2014-Nov-28 19:29N 40°54' E 028°55'  
2014-Nov-23 20:30N 39°47' E 025°46'152 8.8
2014-Nov-23 03:15N 40°54' E 028°45'7 8.9
2014-Nov-23 02:31N 40°56' E 028°53'3 1.0
2014-Nov-22 23:33N 40°57' E 028°56'12 8.8
2014-Nov-22 22:09N 41°08' E 029°04'14 1.2
2014-Nov-22 10:33N 41°21' E 029°10'8 6.5
2014-Nov-22 09:21N 41°25' E 029°19'5 6.3
2014-Nov-22 08:33N 41°28' E 029°25'  
Track history (hours):
 
Tides and Currents Weather Stations Pressure Air Temp Water Temp Dewpoint Dewpoint Depression Visibility Wind Speed Wind Dir Waves Ship Positions

Sv.knyaz Vladimir

Last reported at 2014-Dec-01 20:31 UTC. Time now 2014-Dec-21 23:12 UTC.
Position N 44°07' E 034°24'.
Warning: this ship's position is 20 days out of date.

Length 128 m; draft 3.3 m.

Type: Cargo ship. MMSI: 273350360.

Date/timePositionNaut miles runAvg speedWind from/ knotsBaromVisibWave heightAir tempDewpointWater temp
2014-Dec-01 20:31N 44°07' E 034°24'267 8.0
2014-Nov-30 11:08N 41°26' E 029°33'5 8.5
2014-Nov-30 10:33N 41°24' E 029°28'9 8.6
2014-Nov-30 09:31N 41°19' E 029°18'23 7.0
2014-Nov-30 06:17N 41°00' E 028°60'3 4.3
2014-Nov-30 05:33N 40°57' E 028°59'3 2.8
2014-Nov-30 04:32N 40°56' E 028°55'1 0.2
2014-Nov-29 21:20N 40°57' E 028°55'0 0.0
2014-Nov-29 20:32N 40°57' E 028°55'0 0.0
2014-Nov-29 17:32N 40°57' E 028°55'0 0.0
2014-Nov-29 16:32N 40°57' E 028°55'0 0.0
2014-Nov-29 13:20N 40°58' E 028°55'0 0.0
2014-Nov-29 12:32N 40°57' E 028°55'0 0.0
2014-Nov-29 11:32N 40°57' E 028°55'0 0.0
2014-Nov-29 10:26N 40°57' E 028°55'0 0.0
2014-Nov-29 09:28N 40°57' E 028°55'0 0.0
2014-Nov-29 08:16N 40°57' E 028°55'0 0.0
2014-Nov-29 06:16N 40°57' E 028°55'0 0.0
2014-Nov-29 05:28N 40°57' E 028°55'0 0.0
2014-Nov-29 04:22N 40°57' E 028°55'0 0.0
2014-Nov-29 03:22N 40°57' E 028°55'0 0.0
2014-Nov-29 02:17N 40°57' E 028°55'0 0.0
2014-Nov-29 01:24N 40°57' E 028°55'0 0.0
2014-Nov-29 00:30N 40°57' E 028°55'0 0.0
2014-Nov-28 23:18N 40°57' E 028°55'0 0.0
2014-Nov-28 20:27N 40°57' E 028°55'4 4.0
2014-Nov-28 19:29N 40°54' E 028°55'  
2014-Nov-23 20:30N 39°47' E 025°46'152 8.8
2014-Nov-23 03:15N 40°54' E 028°45'7 8.9
2014-Nov-23 02:31N 40°56' E 028°53'3 1.0
2014-Nov-22 23:33N 40°57' E 028°56'12 8.8
2014-Nov-22 22:09N 41°08' E 029°04'14 1.2
2014-Nov-22 10:33N 41°21' E 029°10'8 6.5
2014-Nov-22 09:21N 41°25' E 029°19'5 6.3
2014-Nov-22 08:33N 41°28' E 029°25'  

Dump ship's entire track history